createdAt,value
2023-03-15T00:01:21.272Z,1.88
2023-03-15T00:03:48.874Z,1.90
2023-03-15T00:06:16.456Z,1.85
2023-03-15T00:08:47.545Z,1.73
2023-03-15T00:11:16.080Z,1.45
2023-03-15T00:13:44.226Z,2.05
2023-03-15T00:16:12.163Z,1.83
2023-03-15T00:18:39.834Z,2.42
2023-03-15T00:21:09.148Z,1.52
2023-03-15T00:23:36.647Z,2.55
2023-03-15T00:26:03.769Z,3.13
2023-03-15T00:28:31.006Z,2.22
2023-03-15T00:31:08.024Z,1.63
2023-03-15T00:33:36.030Z,2.05
2023-03-15T00:36:05.541Z,1.40
2023-03-15T00:38:33.965Z,1.27
2023-03-15T00:41:12.612Z,1.90
2023-03-15T00:43:40.590Z,1.27
2023-03-15T00:46:08.302Z,1.35
2023-03-15T00:48:35.958Z,1.30
2023-03-15T00:51:11.900Z,1.83
2023-03-15T00:53:42.485Z,1.58
2023-03-15T00:56:21.194Z,1.50
2023-03-15T00:58:49.359Z,1.52
2023-03-15T01:01:21.220Z,1.77
2023-03-15T01:03:48.894Z,2.10
2023-03-15T01:06:18.987Z,2.53
2023-03-15T01:08:46.813Z,2.25
2023-03-15T01:11:17.482Z,1.73
2023-03-15T01:13:45.357Z,2.33
2023-03-15T01:16:14.404Z,1.75
2023-03-15T01:18:42.401Z,1.48
2023-03-15T01:21:11.452Z,2.53
2023-03-15T01:23:39.625Z,1.67
2023-03-15T01:26:08.639Z,1.77
2023-03-15T01:28:35.996Z,2.55
2023-03-15T01:31:03.064Z,2.28
2023-03-15T01:33:30.395Z,2.50
2023-03-15T01:36:04.080Z,2.88
2023-03-15T01:38:32.829Z,2.55
2023-03-15T01:41:00.069Z,2.50
2023-03-15T01:43:29.128Z,2.33
2023-03-15T01:46:04.315Z,2.40
2023-03-15T01:48:44.892Z,2.40
2023-03-15T01:51:38.371Z,3.00
2023-03-15T01:54:17.819Z,2.90
2023-03-15T01:57:10.691Z,2.97
2023-03-15T01:59:43.665Z,3.05
2023-03-15T02:02:14.663Z,3.30
2023-03-15T02:04:48.207Z,4.22
2023-03-15T02:07:17.914Z,3.03
2023-03-15T02:10:02.494Z,3.25
2023-03-15T02:12:32.185Z,2.65
2023-03-15T02:15:02.872Z,3.40
2023-03-15T02:17:38.201Z,4.90
2023-03-15T02:20:19.025Z,3.78
2023-03-15T02:23:08.605Z,3.15
2023-03-15T02:25:55.153Z,3.45
2023-03-15T02:28:22.821Z,3.60
2023-03-15T02:30:50.880Z,3.70
2023-03-15T02:33:49.087Z,3.55
2023-03-15T02:36:22.876Z,4.20
2023-03-15T02:38:51.045Z,3.60
2023-03-15T02:41:26.613Z,3.35
2023-03-15T02:43:56.792Z,3.40
2023-03-15T02:46:24.432Z,3.08
2023-03-15T02:48:54.254Z,2.85
2023-03-15T02:51:24.063Z,3.35
2023-03-15T02:53:51.180Z,3.40
2023-03-15T02:56:18.736Z,3.42
2023-03-15T02:58:46.227Z,4.03
2023-03-15T03:01:18.292Z,3.33
2023-03-15T03:03:47.144Z,4.10
2023-03-15T03:06:16.486Z,3.70
2023-03-15T03:08:47.099Z,3.53
2023-03-15T03:11:16.218Z,3.80
2023-03-15T03:13:43.374Z,3.35
2023-03-15T03:16:10.909Z,3.13
2023-03-15T03:18:37.900Z,3.75
2023-03-15T03:21:07.260Z,2.80
2023-03-15T03:23:35.790Z,3.50
2023-03-15T03:26:11.403Z,2.95
2023-03-15T03:28:38.507Z,2.58
2023-03-15T03:31:05.913Z,2.65
2023-03-15T03:33:32.914Z,2.70
2023-03-15T03:36:04.612Z,2.13
2023-03-15T03:38:31.707Z,3.50
2023-03-15T03:40:59.248Z,2.92
2023-03-15T03:43:26.253Z,2.20
2023-03-15T03:45:53.857Z,2.88
2023-03-15T03:48:20.820Z,3.70
2023-03-15T03:50:48.338Z,3.10
2023-03-15T03:53:15.265Z,2.67
2023-03-15T03:55:42.844Z,3.00
2023-03-15T03:58:10.011Z,2.30
2023-03-15T04:00:37.383Z,2.67
2023-03-15T04:03:04.722Z,3.25
2023-03-15T04:05:32.042Z,2.33
2023-03-15T04:07:59.163Z,2.22
2023-03-15T04:10:29.442Z,2.67
2023-03-15T04:12:57.412Z,1.83
2023-03-15T04:15:25.324Z,2.78
2023-03-15T04:17:55.943Z,1.85
2023-03-15T04:20:24.608Z,2.35
2023-03-15T04:22:51.712Z,1.95
2023-03-15T04:25:19.880Z,1.48
2023-03-15T04:27:58.637Z,1.75
2023-03-15T04:30:27.636Z,2.30
2023-03-15T04:33:03.553Z,1.60
2023-03-15T04:35:33.338Z,1.52
2023-03-15T04:38:01.380Z,1.48
2023-03-15T04:40:30.753Z,1.83
2023-03-15T04:42:57.729Z,1.95
2023-03-15T04:45:26.858Z,1.83
2023-03-15T04:47:54.685Z,1.67
2023-03-15T04:50:23.088Z,1.33
2023-03-15T04:52:50.152Z,0.93
2023-03-15T04:55:17.926Z,1.23
2023-03-15T04:57:44.901Z,1.30
2023-03-15T05:00:13.083Z,1.40
2023-03-15T05:02:41.796Z,1.42
2023-03-15T05:05:10.704Z,1.08
2023-03-15T05:07:38.670Z,1.38
2023-03-15T05:10:07.085Z,0.73
2023-03-15T05:12:34.193Z,1.20
2023-03-15T05:15:01.554Z,1.08
2023-03-15T05:17:28.592Z,1.75
2023-03-15T05:19:55.901Z,0.95
2023-03-15T05:22:25.782Z,1.33
2023-03-15T05:24:56.659Z,1.58
2023-03-15T05:27:24.160Z,1.52
2023-03-15T05:29:51.658Z,1.30
2023-03-15T05:32:18.612Z,1.27
2023-03-15T05:34:45.899Z,1.42
2023-03-15T05:37:12.932Z,1.25
2023-03-15T05:39:42.513Z,1.60
2023-03-15T05:42:09.490Z,3.05
2023-03-15T05:44:36.967Z,3.47
2023-03-15T05:47:04.119Z,2.05
2023-03-15T05:49:31.550Z,1.70
2023-03-15T05:51:58.571Z,1.30
2023-03-15T05:54:25.868Z,1.48
2023-03-15T05:56:53.005Z,1.45
2023-03-15T05:59:20.461Z,1.10
2023-03-15T06:01:47.439Z,1.23
2023-03-15T06:04:14.778Z,1.45
2023-03-15T06:06:41.750Z,1.25
2023-03-15T06:09:09.403Z,1.40
2023-03-15T06:11:36.729Z,1.85
2023-03-15T06:14:04.671Z,1.92
2023-03-15T06:16:31.747Z,1.23
2023-03-15T06:18:59.705Z,1.80
2023-03-15T06:21:26.808Z,1.75
2023-03-15T06:23:54.157Z,2.65
2023-03-15T06:26:22.045Z,1.58
2023-03-15T06:28:49.695Z,1.65
2023-03-15T06:31:16.751Z,1.80
2023-03-15T06:33:44.104Z,1.25
2023-03-15T06:36:11.403Z,1.65
2023-03-15T06:38:38.653Z,1.80
2023-03-15T06:41:05.620Z,1.70
2023-03-15T06:43:33.046Z,1.40
2023-03-15T06:46:00.358Z,1.40
2023-03-15T06:48:28.557Z,1.42
2023-03-15T06:50:55.950Z,1.35
2023-03-15T06:53:23.368Z,1.70
2023-03-15T06:55:51.681Z,1.27
2023-03-15T06:58:19.090Z,1.90
2023-03-15T07:00:46.354Z,1.58
2023-03-15T07:03:13.657Z,2.58
2023-03-15T07:05:40.686Z,2.53
2023-03-15T07:08:08.256Z,2.20
2023-03-15T07:10:35.434Z,2.22
2023-03-15T07:13:02.906Z,2.85
2023-03-15T07:15:29.896Z,2.78
2023-03-15T07:17:57.194Z,2.90
2023-03-15T07:20:24.165Z,2.38
2023-03-15T07:22:51.519Z,3.25
2023-03-15T07:25:24.141Z,3.10
2023-03-15T07:27:52.274Z,2.65
2023-03-15T07:30:20.386Z,2.35
2023-03-15T07:32:48.179Z,2.65
2023-03-15T07:35:15.380Z,2.58
2023-03-15T07:37:44.636Z,2.65
2023-03-15T07:40:12.893Z,2.60
2023-03-15T07:42:40.721Z,2.05
2023-03-15T07:45:08.399Z,2.55
2023-03-15T07:47:36.297Z,3.38
2023-03-15T07:50:05.198Z,2.88
2023-03-15T07:52:32.526Z,3.63
2023-03-15T07:54:59.571Z,2.40
2023-03-15T07:57:28.878Z,3.40
2023-03-15T07:59:56.226Z,3.10
2023-03-15T08:02:23.975Z,2.22
2023-03-15T08:04:51.474Z,2.50
2023-03-15T08:07:19.132Z,3.17
2023-03-15T08:09:46.490Z,2.42
2023-03-15T08:12:13.916Z,3.05
2023-03-15T08:14:40.947Z,2.00
2023-03-15T08:17:13.029Z,2.50
2023-03-15T08:19:40.101Z,2.15
2023-03-15T08:22:08.162Z,3.70
2023-03-15T08:24:35.642Z,1.85
2023-03-15T08:27:05.032Z,1.70
2023-03-15T08:29:32.556Z,1.38
2023-03-15T08:32:00.252Z,1.88
2023-03-15T08:34:27.530Z,1.48
2023-03-15T08:36:55.090Z,2.00
2023-03-15T08:39:24.233Z,2.15
2023-03-15T08:41:51.534Z,2.15
2023-03-15T08:44:18.915Z,2.90
2023-03-15T08:46:46.216Z,1.83
2023-03-15T08:49:13.244Z,2.75
2023-03-15T08:51:41.046Z,1.77
2023-03-15T08:54:08.241Z,1.88
2023-03-15T08:56:35.933Z,1.40
2023-03-15T08:59:02.940Z,1.85
2023-03-15T09:01:30.540Z,1.60
2023-03-15T09:03:57.631Z,1.42
2023-03-15T09:06:25.423Z,2.17
2023-03-15T09:08:53.910Z,1.88
2023-03-15T09:11:22.057Z,1.92
2023-03-15T09:13:49.439Z,2.03
2023-03-15T09:16:17.000Z,2.33
2023-03-15T09:18:44.711Z,2.30
2023-03-15T09:21:12.268Z,2.03
2023-03-15T09:23:41.829Z,2.15
2023-03-15T09:26:09.108Z,1.80
2023-03-15T09:28:36.095Z,1.95
2023-03-15T09:31:07.145Z,2.00
2023-03-15T09:33:34.352Z,2.65
2023-03-15T09:36:01.643Z,2.33
2023-03-15T09:38:28.789Z,2.17
2023-03-15T09:40:58.331Z,6.25
2023-03-15T09:43:40.132Z,2.33
2023-03-15T09:46:31.287Z,1.95
2023-03-15T09:49:35.938Z,2.03
2023-03-15T09:52:22.038Z,1.65
2023-03-15T09:55:00.660Z,1.63
2023-03-15T09:57:43.348Z,1.40
2023-03-15T10:00:22.139Z,1.90
2023-03-15T10:02:59.228Z,1.25
2023-03-15T10:05:41.950Z,1.83
2023-03-15T10:08:14.737Z,1.58
2023-03-15T10:10:53.144Z,1.73
2023-03-15T10:13:39.078Z,3.05
2023-03-15T10:16:41.906Z,2.15
2023-03-15T10:19:30.870Z,1.33
2023-03-15T10:22:00.965Z,2.33
2023-03-15T10:24:51.790Z,1.70
2023-03-15T10:27:36.408Z,2.03
2023-03-15T10:30:17.904Z,2.45
2023-03-15T10:32:48.039Z,2.40
2023-03-15T10:35:18.124Z,2.30
2023-03-15T10:37:45.329Z,2.28
2023-03-15T10:40:17.085Z,2.22
2023-03-15T10:42:46.189Z,2.00
2023-03-15T10:45:25.573Z,1.70
2023-03-15T10:48:00.261Z,1.20
2023-03-15T10:50:32.251Z,1.20
2023-03-15T10:53:08.829Z,2.05
2023-03-15T10:55:42.510Z,1.85
2023-03-15T11:01:01.176Z,1.17
2023-03-15T11:03:29.481Z,2.10
2023-03-15T11:05:58.669Z,2.15
2023-03-15T11:08:37.674Z,1.40
2023-03-15T11:11:05.979Z,1.75
2023-03-15T11:13:35.788Z,1.70
2023-03-15T11:16:14.279Z,2.67
2023-03-15T11:18:46.697Z,2.30
2023-03-15T11:21:16.046Z,3.33
2023-03-15T11:23:53.934Z,3.25
2023-03-15T11:26:38.598Z,2.22
2023-03-15T11:29:15.013Z,3.03
2023-03-15T11:31:42.788Z,3.67
2023-03-15T11:34:23.645Z,2.65
2023-03-15T11:37:07.508Z,3.90
2023-03-15T11:40:08.810Z,1.67
2023-03-15T11:43:05.152Z,1.95
2023-03-15T11:45:40.031Z,2.00
2023-03-15T11:48:28.739Z,1.73
2023-03-15T11:50:57.619Z,2.78
2023-03-15T11:53:30.930Z,1.35
2023-03-15T11:58:36.673Z,1.80
2023-03-15T12:01:08.178Z,1.40
2023-03-15T12:03:44.666Z,1.42
2023-03-15T12:06:17.965Z,1.98
2023-03-15T12:08:52.196Z,2.53
2023-03-15T12:11:21.936Z,1.75
2023-03-15T12:14:01.660Z,1.75
2023-03-15T12:16:39.187Z,1.63
2023-03-15T12:19:16.625Z,2.00
2023-03-15T12:21:56.990Z,1.23
2023-03-15T12:24:24.202Z,1.40
2023-03-15T12:27:13.897Z,1.17
2023-03-15T12:29:45.683Z,1.42
2023-03-15T12:32:15.491Z,1.30
2023-03-15T12:34:53.536Z,1.67
2023-03-15T12:37:43.924Z,1.48
2023-03-15T12:40:18.917Z,1.20
2023-03-15T12:42:48.807Z,1.15
2023-03-15T12:45:33.469Z,0.75
2023-03-15T12:48:01.171Z,1.02
2023-03-15T12:50:44.048Z,1.00
2023-03-15T12:53:19.880Z,1.02
2023-03-15T12:55:47.675Z,1.15
2023-03-15T12:58:18.594Z,0.95
2023-03-15T13:00:46.942Z,0.80
2023-03-15T13:03:23.138Z,1.15
2023-03-15T13:06:19.289Z,1.90
2023-03-15T13:08:58.583Z,1.23
2023-03-15T13:11:50.177Z,1.00
2023-03-15T13:14:17.127Z,0.82
2023-03-15T13:17:10.074Z,1.52
2023-03-15T13:19:51.341Z,1.80
2023-03-15T13:22:54.863Z,1.35
2023-03-15T13:26:02.868Z,1.08
2023-03-15T13:28:49.502Z,1.40
2023-03-15T13:31:20.190Z,1.10
2023-03-15T13:33:49.488Z,1.23
2023-03-15T13:36:23.618Z,1.33
2023-03-15T13:38:52.871Z,1.15
2023-03-15T13:41:21.276Z,1.67
2023-03-15T13:43:51.330Z,2.00
2023-03-15T13:46:22.799Z,1.38
2023-03-15T13:48:51.659Z,1.80
2023-03-15T13:51:28.552Z,1.58
2023-03-15T13:54:01.940Z,2.85
2023-03-15T13:59:12.302Z,3.78
2023-03-15T14:01:42.491Z,4.05
2023-03-15T14:04:17.423Z,2.95
2023-03-15T14:06:45.849Z,3.28
2023-03-15T14:09:23.141Z,1.95
2023-03-15T14:12:07.481Z,1.85
2023-03-15T14:14:46.233Z,2.45
2023-03-15T14:17:27.050Z,2.55
2023-03-15T14:19:56.788Z,2.88
2023-03-15T14:22:24.554Z,2.03
2023-03-15T14:24:52.990Z,1.65
2023-03-15T14:27:27.110Z,1.70
2023-03-15T14:30:00.226Z,1.95
2023-03-15T14:32:31.496Z,2.20
2023-03-15T14:35:29.088Z,3.40
2023-03-15T14:38:18.032Z,2.50
2023-03-15T14:40:46.402Z,1.58
2023-03-15T14:47:16.536Z,2.33
2023-03-15T14:49:44.167Z,2.05
2023-03-15T14:52:14.642Z,2.72
2023-03-15T14:54:49.761Z,2.75
2023-03-15T14:57:17.084Z,2.50
2023-03-15T14:59:44.382Z,5.40
2023-03-15T15:02:18.038Z,3.88
2023-03-15T15:04:48.454Z,4.00
2023-03-15T15:07:17.399Z,3.95
2023-03-15T15:09:49.044Z,1.42
2023-03-15T15:12:16.322Z,1.13
2023-03-15T15:14:43.894Z,4.10
2023-03-15T15:17:11.359Z,2.40
2023-03-15T15:19:38.983Z,2.45
2023-03-15T15:22:05.952Z,3.72
2023-03-15T15:24:33.214Z,2.03
2023-03-15T15:27:00.277Z,2.55
2023-03-15T15:29:27.676Z,2.50
2023-03-15T15:31:54.702Z,2.17
2023-03-15T15:34:22.069Z,2.50
2023-03-15T15:36:49.521Z,2.97
2023-03-15T15:39:23.667Z,3.08
2023-03-15T15:41:50.941Z,3.45
2023-03-15T15:44:20.851Z,4.30
2023-03-15T15:46:47.928Z,2.50
2023-03-15T15:49:15.538Z,3.90
2023-03-15T15:51:49.715Z,7.35
2023-03-15T15:54:26.003Z,2.53
2023-03-15T15:56:56.309Z,2.45
2023-03-15T15:59:27.225Z,1.75
2023-03-15T16:02:01.225Z,2.50
2023-03-15T16:04:29.920Z,3.72
2023-03-15T16:07:02.638Z,5.30
2023-03-15T16:11:58.628Z,2.92
2023-03-15T16:14:26.433Z,2.58
2023-03-15T16:16:53.522Z,1.60
2023-03-15T16:19:21.524Z,2.83
2023-03-15T16:21:51.667Z,1.95
2023-03-15T16:24:26.062Z,2.45
2023-03-15T16:27:06.571Z,6.68
2023-03-15T16:29:40.127Z,3.70
2023-03-15T16:32:16.870Z,1.85
2023-03-15T16:34:47.881Z,2.15
2023-03-15T16:37:19.888Z,2.08
2023-03-15T16:39:48.796Z,2.05
2023-03-15T16:42:17.964Z,2.03
2023-03-15T16:44:45.361Z,5.15
2023-03-15T16:47:12.449Z,5.22
2023-03-15T16:49:39.786Z,3.40
2023-03-15T16:52:10.647Z,3.45
2023-03-15T16:54:41.559Z,4.03
2023-03-15T16:57:22.143Z,3.53
2023-03-15T16:59:50.381Z,3.65
2023-03-15T17:02:26.302Z,4.30
2023-03-15T17:04:54.563Z,5.15
2023-03-15T17:07:36.091Z,3.28
2023-03-15T17:10:17.639Z,3.40
2023-03-15T17:12:44.792Z,2.88
2023-03-15T17:15:12.400Z,2.95
2023-03-15T17:17:39.457Z,2.90
2023-03-15T17:20:10.794Z,2.60
2023-03-15T17:22:37.940Z,3.10
2023-03-15T17:25:05.846Z,2.88
2023-03-15T17:27:40.070Z,2.20
2023-03-15T17:30:29.443Z,4.28
2023-03-15T17:32:56.765Z,6.32
2023-03-15T17:35:47.944Z,8.25
2023-03-15T17:38:21.761Z,8.30
2023-03-15T17:40:49.500Z,5.80
2023-03-15T17:43:17.293Z,6.50
2023-03-15T17:45:44.661Z,8.30
2023-03-15T17:48:11.924Z,8.77
2023-03-15T17:50:42.526Z,8.95
2023-03-15T17:53:21.193Z,6.68
2023-03-15T17:55:49.186Z,7.85
2023-03-15T17:58:24.766Z,7.88
2023-03-15T18:00:54.705Z,6.35
2023-03-15T18:03:22.755Z,4.95
2023-03-15T18:05:50.668Z,6.07
2023-03-15T18:08:20.590Z,8.25
2023-03-15T18:10:49.874Z,8.68
2023-03-15T18:13:19.613Z,9.30
2023-03-15T18:15:48.966Z,10.52
2023-03-15T18:18:16.903Z,7.35
2023-03-15T18:20:45.537Z,7.90
2023-03-15T18:23:14.439Z,5.60
2023-03-15T18:25:42.392Z,4.72
2023-03-15T18:28:09.410Z,4.32
2023-03-15T18:30:36.780Z,3.50
2023-03-15T18:33:05.797Z,3.67
2023-03-15T18:35:35.646Z,4.00
2023-03-15T18:38:04.164Z,5.60
2023-03-15T18:40:33.108Z,5.65
2023-03-15T18:43:00.504Z,6.20
2023-03-15T18:45:31.107Z,5.53
2023-03-15T18:47:59.977Z,5.25
2023-03-15T18:50:28.519Z,5.40
2023-03-15T18:52:56.453Z,4.43
2023-03-15T18:55:24.222Z,5.03
2023-03-15T18:57:53.540Z,5.78
2023-03-15T19:00:25.999Z,6.22
2023-03-15T19:02:59.137Z,5.70
2023-03-15T19:05:28.446Z,6.18
2023-03-15T19:07:55.980Z,5.43
2023-03-15T19:10:24.749Z,6.68
2023-03-15T19:12:53.139Z,8.02
2023-03-15T19:15:22.883Z,7.78
2023-03-15T19:17:52.690Z,6.88
2023-03-15T19:20:21.675Z,8.30
2023-03-15T19:22:49.672Z,9.38
2023-03-15T19:25:17.386Z,7.55
2023-03-15T19:27:44.979Z,8.30
2023-03-15T19:30:17.012Z,6.65
2023-03-15T19:32:46.813Z,5.85
2023-03-15T19:35:14.517Z,5.55
2023-03-15T19:37:44.321Z,5.25
2023-03-15T19:40:14.025Z,6.68
2023-03-15T19:42:41.613Z,4.88
2023-03-15T19:45:10.372Z,7.05
2023-03-15T19:47:37.516Z,6.18
2023-03-15T19:50:05.819Z,5.53
2023-03-15T19:52:33.608Z,7.15
2023-03-15T19:55:01.339Z,5.55
2023-03-15T19:57:28.582Z,5.78
2023-03-15T19:59:55.853Z,4.47
2023-03-15T20:02:22.859Z,5.13
2023-03-15T20:04:50.457Z,5.45
2023-03-15T20:07:17.800Z,4.72
2023-03-15T20:09:45.347Z,4.50
2023-03-15T20:12:13.879Z,4.95
2023-03-15T20:14:41.610Z,6.07
2023-03-15T20:17:08.677Z,4.93
2023-03-15T20:19:36.258Z,5.95
2023-03-15T20:22:03.481Z,5.78
2023-03-15T20:24:30.892Z,5.70
2023-03-15T20:26:57.912Z,7.20
2023-03-15T20:29:25.217Z,8.20
2023-03-15T20:31:53.445Z,6.03
2023-03-15T20:34:22.128Z,5.10
2023-03-15T20:36:49.194Z,4.82
2023-03-15T20:39:18.451Z,5.93
2023-03-15T20:41:45.520Z,5.97
2023-03-15T20:44:13.054Z,7.90
2023-03-15T20:46:40.192Z,6.68
2023-03-15T20:49:07.604Z,7.10
2023-03-15T20:51:34.741Z,6.97
2023-03-15T20:54:02.364Z,6.28
2023-03-15T20:56:29.428Z,6.72
2023-03-15T20:58:56.780Z,8.68
2023-03-15T21:01:23.779Z,6.90
2023-03-15T21:03:54.651Z,5.57
2023-03-15T21:06:22.182Z,6.15
2023-03-15T21:08:49.452Z,5.28
2023-03-15T21:11:16.665Z,6.22
2023-03-15T21:13:43.949Z,6.88
2023-03-15T21:16:12.920Z,6.55
2023-03-15T21:18:47.571Z,7.20
2023-03-15T21:21:14.831Z,6.38
2023-03-15T21:23:42.154Z,7.47
2023-03-15T21:26:12.174Z,8.80
2023-03-15T21:28:40.666Z,8.75
2023-03-15T21:31:07.997Z,8.50
2023-03-15T21:33:36.085Z,8.73
2023-03-15T21:36:03.411Z,9.02
2023-03-15T21:38:33.710Z,8.07
2023-03-15T21:41:01.284Z,9.90
2023-03-15T21:43:31.484Z,10.00
2023-03-15T21:46:12.072Z,10.85
2023-03-15T21:48:39.882Z,9.75
2023-03-15T21:51:07.652Z,10.43
2023-03-15T21:53:35.896Z,9.27
2023-03-15T21:56:04.127Z,10.43
2023-03-15T21:58:31.665Z,10.65
2023-03-15T22:00:59.059Z,10.50
2023-03-15T22:03:27.924Z,11.32
2023-03-15T22:05:54.898Z,10.65
2023-03-15T22:08:22.440Z,10.00
2023-03-15T22:10:54.138Z,9.68
2023-03-15T22:13:22.629Z,8.77
2023-03-15T22:15:52.256Z,10.57
2023-03-15T22:18:20.706Z,10.48
2023-03-15T22:20:48.900Z,8.63
2023-03-15T22:23:17.119Z,9.13
2023-03-15T22:25:44.283Z,11.20
2023-03-15T22:28:11.724Z,12.20
2023-03-15T22:30:38.886Z,10.32
2023-03-15T22:33:06.854Z,10.65
2023-03-15T22:35:34.091Z,10.10
2023-03-15T22:38:10.242Z,10.57
2023-03-15T22:40:39.502Z,10.82
2023-03-15T22:43:08.214Z,10.63
2023-03-15T22:45:35.979Z,13.05
2023-03-15T22:48:03.623Z,13.35
2023-03-15T22:50:31.193Z,12.95
2023-03-15T22:52:58.453Z,12.57
2023-03-15T22:55:25.883Z,13.45
2023-03-15T22:57:53.959Z,13.15
2023-03-15T23:00:23.628Z,13.70
2023-03-15T23:02:51.195Z,12.23
2023-03-15T23:05:19.880Z,9.65
2023-03-15T23:07:47.440Z,10.60
2023-03-15T23:10:14.717Z,10.35
2023-03-15T23:12:42.078Z,10.88
2023-03-15T23:15:10.368Z,9.77
2023-03-15T23:17:37.671Z,9.60
2023-03-15T23:20:07.345Z,8.80
2023-03-15T23:22:34.921Z,9.40
2023-03-15T23:25:02.978Z,9.90
2023-03-15T23:27:30.287Z,9.73
2023-03-15T23:29:57.271Z,10.75
2023-03-15T23:32:27.603Z,8.82
2023-03-15T23:34:54.622Z,11.23
2023-03-15T23:37:23.443Z,11.40
2023-03-15T23:39:53.367Z,14.18
2023-03-15T23:42:25.683Z,15.45
2023-03-15T23:44:55.965Z,10.95
2023-03-15T23:47:24.972Z,10.48
2023-03-15T23:49:52.066Z,11.00
2023-03-15T23:52:19.379Z,12.65
2023-03-15T23:54:46.428Z,12.50
2023-03-15T23:57:15.302Z,12.30
2023-03-15T23:59:43.441Z,12.82
